sensor_id;sensor_type;location;lat;lon;timestamp;P1;durP1;ratioP1;P2;durP2;ratioP2
17739;SDS011;8990;33.226;-97.150;2023-04-03T00:01:37;1.27;;;1.13;;
17739;SDS011;8990;33.226;-97.150;2023-04-03T00:04:08;3.30;;;2.05;;
17739;SDS011;8990;33.226;-97.150;2023-04-03T00:06:37;2.55;;;1.52;;
17739;SDS011;8990;33.226;-97.150;2023-04-03T00:09:06;1.10;;;1.00;;
17739;SDS011;8990;33.226;-97.150;2023-04-03T00:11:34;0.77;;;0.77;;
17739;SDS011;8990;33.226;-97.150;2023-04-03T00:14:04;0.22;;;0.22;;
17739;SDS011;8990;33.226;-97.150;2023-04-03T00:16:33;2.03;;;1.05;;
17739;SDS011;8990;33.226;-97.150;2023-04-03T00:19:04;0.30;;;0.30;;
17739;SDS011;8990;33.226;-97.150;2023-04-03T00:21:33;1.25;;;1.25;;
17739;SDS011;8990;33.226;-97.150;2023-04-03T00:24:03;0.63;;;0.63;;
17739;SDS011;8990;33.226;-97.150;2023-04-03T00:26:32;6.43;;;0.65;;
17739;SDS011;8990;33.226;-97.150;2023-04-03T00:29:01;0.75;;;0.75;;
17739;SDS011;8990;33.226;-97.150;2023-04-03T00:31:30;0.45;;;0.40;;
17739;SDS011;8990;33.226;-97.150;2023-04-03T00:33:59;0.77;;;0.77;;
17739;SDS011;8990;33.226;-97.150;2023-04-03T00:36:30;0.38;;;0.38;;
17739;SDS011;8990;33.226;-97.150;2023-04-03T00:38:59;0.98;;;0.77;;
17739;SDS011;8990;33.226;-97.150;2023-04-03T00:41:29;0.68;;;0.68;;
17739;SDS011;8990;33.226;-97.150;2023-04-03T00:43:58;0.40;;;0.40;;
17739;SDS011;8990;33.226;-97.150;2023-04-03T00:46:27;0.28;;;0.28;;
17739;SDS011;8990;33.226;-97.150;2023-04-03T00:48:56;0.45;;;0.45;;
17739;SDS011;8990;33.226;-97.150;2023-04-03T00:51:25;0.73;;;0.73;;
17739;SDS011;8990;33.226;-97.150;2023-04-03T00:53:57;0.28;;;0.28;;
17739;SDS011;8990;33.226;-97.150;2023-04-03T00:56:28;0.93;;;0.80;;
17739;SDS011;8990;33.226;-97.150;2023-04-03T00:58:59;0.38;;;0.38;;
17739;SDS011;8990;33.226;-97.150;2023-04-03T01:01:31;0.28;;;0.28;;
17739;SDS011;8990;33.226;-97.150;2023-04-03T01:04:01;0.30;;;0.30;;
17739;SDS011;8990;33.226;-97.150;2023-04-03T01:06:33;0.40;;;0.40;;
17739;SDS011;8990;33.226;-97.150;2023-04-03T01:09:09;0.60;;;0.60;;
17739;SDS011;8990;33.226;-97.150;2023-04-03T01:11:39;0.35;;;0.35;;
17739;SDS011;8990;33.226;-97.150;2023-04-03T01:14:08;0.55;;;0.52;;
17739;SDS011;8990;33.226;-97.150;2023-04-03T01:16:37;0.30;;;0.30;;
17739;SDS011;8990;33.226;-97.150;2023-04-03T01:19:06;0.65;;;0.65;;
17739;SDS011;8990;33.226;-97.150;2023-04-03T01:21:50;0.88;;;0.88;;
17739;SDS011;8990;33.226;-97.150;2023-04-03T01:24:35;0.82;;;0.82;;
17739;SDS011;8990;33.226;-97.150;2023-04-03T01:27:08;1.77;;;0.82;;
17739;SDS011;8990;33.226;-97.150;2023-04-03T01:29:39;0.35;;;0.35;;
17739;SDS011;8990;33.226;-97.150;2023-04-03T01:32:11;0.88;;;0.57;;
17739;SDS011;8990;33.226;-97.150;2023-04-03T01:34:41;1.75;;;1.08;;
17739;SDS011;8990;33.226;-97.150;2023-04-03T01:37:11;0.68;;;0.68;;
17739;SDS011;8990;33.226;-97.150;2023-04-03T01:39:40;0.82;;;0.82;;
17739;SDS011;8990;33.226;-97.150;2023-04-03T01:42:09;0.38;;;0.38;;
17739;SDS011;8990;33.226;-97.150;2023-04-03T01:44:42;0.50;;;0.50;;
17739;SDS011;8990;33.226;-97.150;2023-04-03T01:47:14;0.80;;;0.80;;
17739;SDS011;8990;33.226;-97.150;2023-04-03T01:49:43;0.60;;;0.60;;
17739;SDS011;8990;33.226;-97.150;2023-04-03T01:52:12;0.77;;;0.77;;
17739;SDS011;8990;33.226;-97.150;2023-04-03T01:54:41;1.65;;;1.15;;
17739;SDS011;8990;33.226;-97.150;2023-04-03T01:57:10;0.88;;;0.88;;
17739;SDS011;8990;33.226;-97.150;2023-04-03T01:59:40;0.45;;;0.45;;
17739;SDS011;8990;33.226;-97.150;2023-04-03T02:02:09;0.57;;;0.57;;
17739;SDS011;8990;33.226;-97.150;2023-04-03T02:04:42;0.57;;;0.57;;
17739;SDS011;8990;33.226;-97.150;2023-04-03T02:07:11;0.25;;;0.25;;
17739;SDS011;8990;33.226;-97.150;2023-04-03T02:09:40;0.50;;;0.50;;
17739;SDS011;8990;33.226;-97.150;2023-04-03T02:12:09;1.10;;;0.73;;
17739;SDS011;8990;33.226;-97.150;2023-04-03T02:14:38;0.40;;;0.40;;
17739;SDS011;8990;33.226;-97.150;2023-04-03T02:17:11;0.28;;;0.28;;
17739;SDS011;8990;33.226;-97.150;2023-04-03T02:19:42;0.22;;;0.22;;
17739;SDS011;8990;33.226;-97.150;2023-04-03T02:22:11;1.15;;;0.50;;
17739;SDS011;8990;33.226;-97.150;2023-04-03T02:24:40;0.45;;;0.45;;
17739;SDS011;8990;33.226;-97.150;2023-04-03T02:27:09;1.45;;;1.15;;
17739;SDS011;8990;33.226;-97.150;2023-04-03T02:29:38;0.82;;;0.82;;
17739;SDS011;8990;33.226;-97.150;2023-04-03T02:32:07;0.52;;;0.52;;
17739;SDS011;8990;33.226;-97.150;2023-04-03T02:34:37;0.52;;;0.52;;
17739;SDS011;8990;33.226;-97.150;2023-04-03T02:37:09;0.43;;;0.43;;
17739;SDS011;8990;33.226;-97.150;2023-04-03T02:39:39;0.52;;;0.52;;
17739;SDS011;8990;33.226;-97.150;2023-04-03T02:42:08;0.52;;;0.52;;
17739;SDS011;8990;33.226;-97.150;2023-04-03T02:44:37;0.30;;;0.30;;
17739;SDS011;8990;33.226;-97.150;2023-04-03T02:47:08;0.73;;;0.73;;
17739;SDS011;8990;33.226;-97.150;2023-04-03T02:49:38;1.85;;;0.90;;
17739;SDS011;8990;33.226;-97.150;2023-04-03T02:52:07;0.40;;;0.35;;
17739;SDS011;8990;33.226;-97.150;2023-04-03T02:54:37;0.60;;;0.55;;
17739;SDS011;8990;33.226;-97.150;2023-04-03T02:57:10;0.55;;;0.55;;
17739;SDS011;8990;33.226;-97.150;2023-04-03T02:59:39;6.32;;;1.80;;
17739;SDS011;8990;33.226;-97.150;2023-04-03T03:02:10;0.73;;;0.65;;
17739;SDS011;8990;33.226;-97.150;2023-04-03T03:04:39;0.30;;;0.30;;
17739;SDS011;8990;33.226;-97.150;2023-04-03T03:07:08;0.40;;;0.40;;
17739;SDS011;8990;33.226;-97.150;2023-04-03T03:09:39;0.47;;;0.47;;
17739;SDS011;8990;33.226;-97.150;2023-04-03T03:12:08;1.27;;;0.45;;
17739;SDS011;8990;33.226;-97.150;2023-04-03T03:14:37;0.60;;;0.60;;
17739;SDS011;8990;33.226;-97.150;2023-04-03T03:17:08;0.47;;;0.47;;
17739;SDS011;8990;33.226;-97.150;2023-04-03T03:19:38;0.98;;;0.85;;
17739;SDS011;8990;33.226;-97.150;2023-04-03T03:22:09;0.57;;;0.32;;
17739;SDS011;8990;33.226;-97.150;2023-04-03T03:24:39;0.20;;;0.20;;
17739;SDS011;8990;33.226;-97.150;2023-04-03T03:27:09;0.20;;;0.20;;
17739;SDS011;8990;33.226;-97.150;2023-04-03T03:29:38;1.95;;;1.33;;
17739;SDS011;8990;33.226;-97.150;2023-04-03T03:32:07;0.35;;;0.35;;
17739;SDS011;8990;33.226;-97.150;2023-04-03T03:34:36;0.65;;;0.65;;
17739;SDS011;8990;33.226;-97.150;2023-04-03T03:37:05;0.10;;;0.10;;
17739;SDS011;8990;33.226;-97.150;2023-04-03T03:39:34;0.25;;;0.25;;
17739;SDS011;8990;33.226;-97.150;2023-04-03T03:42:05;0.10;;;0.10;;
17739;SDS011;8990;33.226;-97.150;2023-04-03T03:44:34;0.10;;;0.10;;
17739;SDS011;8990;33.226;-97.150;2023-04-03T03:47:04;2.17;;;0.73;;
17739;SDS011;8990;33.226;-97.150;2023-04-03T03:49:35;0.30;;;0.30;;
17739;SDS011;8990;33.226;-97.150;2023-04-03T03:52:04;0.28;;;0.28;;
17739;SDS011;8990;33.226;-97.150;2023-04-03T03:54:36;0.20;;;0.20;;
17739;SDS011;8990;33.226;-97.150;2023-04-03T03:57:07;0.20;;;0.20;;
17739;SDS011;8990;33.226;-97.150;2023-04-03T03:59:36;0.80;;;0.63;;
17739;SDS011;8990;33.226;-97.150;2023-04-03T04:02:07;0.95;;;0.90;;
17739;SDS011;8990;33.226;-97.150;2023-04-03T04:04:36;2.42;;;1.20;;
17739;SDS011;8990;33.226;-97.150;2023-04-03T04:07:05;0.65;;;0.65;;
17739;SDS011;8990;33.226;-97.150;2023-04-03T04:09:39;0.68;;;0.60;;
17739;SDS011;8990;33.226;-97.150;2023-04-03T04:12:12;0.40;;;0.40;;
17739;SDS011;8990;33.226;-97.150;2023-04-03T04:14:42;0.55;;;0.55;;
17739;SDS011;8990;33.226;-97.150;2023-04-03T04:17:13;0.40;;;0.40;;
17739;SDS011;8990;33.226;-97.150;2023-04-03T04:19:42;0.32;;;0.32;;
17739;SDS011;8990;33.226;-97.150;2023-04-03T04:22:11;0.10;;;0.10;;
17739;SDS011;8990;33.226;-97.150;2023-04-03T04:24:40;0.10;;;0.10;;
17739;SDS011;8990;33.226;-97.150;2023-04-03T04:27:09;0.45;;;0.45;;
17739;SDS011;8990;33.226;-97.150;2023-04-03T04:29:42;1.02;;;0.93;;
17739;SDS011;8990;33.226;-97.150;2023-04-03T04:32:11;0.17;;;0.17;;
17739;SDS011;8990;33.226;-97.150;2023-04-03T04:34:40;0.20;;;0.20;;
17739;SDS011;8990;33.226;-97.150;2023-04-03T04:37:09;0.20;;;0.20;;
17739;SDS011;8990;33.226;-97.150;2023-04-03T04:39:38;0.20;;;0.20;;
17739;SDS011;8990;33.226;-97.150;2023-04-03T04:42:09;2.08;;;0.98;;
17739;SDS011;8990;33.226;-97.150;2023-04-03T04:44:40;0.32;;;0.32;;
17739;SDS011;8990;33.226;-97.150;2023-04-03T04:47:09;0.50;;;0.50;;
17739;SDS011;8990;33.226;-97.150;2023-04-03T04:49:39;0.65;;;0.65;;
17739;SDS011;8990;33.226;-97.150;2023-04-03T04:52:09;0.52;;;0.50;;
17739;SDS011;8990;33.226;-97.150;2023-04-03T04:54:39;5.50;;;0.82;;
17739;SDS011;8990;33.226;-97.150;2023-04-03T04:57:09;18.48;;;1.50;;
17739;SDS011;8990;33.226;-97.150;2023-04-03T04:59:40;0.10;;;0.10;;
17739;SDS011;8990;33.226;-97.150;2023-04-03T05:02:10;0.52;;;0.52;;
17739;SDS011;8990;33.226;-97.150;2023-04-03T05:04:40;0.25;;;0.25;;
17739;SDS011;8990;33.226;-97.150;2023-04-03T05:07:15;2.03;;;1.42;;
17739;SDS011;8990;33.226;-97.150;2023-04-03T05:09:44;0.20;;;0.20;;
17739;SDS011;8990;33.226;-97.150;2023-04-03T05:12:17;0.32;;;0.32;;
17739;SDS011;8990;33.226;-97.150;2023-04-03T05:14:52;0.60;;;0.60;;
17739;SDS011;8990;33.226;-97.150;2023-04-03T05:17:22;0.55;;;0.55;;
17739;SDS011;8990;33.226;-97.150;2023-04-03T05:19:54;0.40;;;0.40;;
17739;SDS011;8990;33.226;-97.150;2023-04-03T05:22:25;2.33;;;1.05;;
17739;SDS011;8990;33.226;-97.150;2023-04-03T05:24:59;0.13;;;0.13;;
17739;SDS011;8990;33.226;-97.150;2023-04-03T05:27:30;0.63;;;0.63;;
17739;SDS011;8990;33.226;-97.150;2023-04-03T05:30:01;1.08;;;0.75;;
17739;SDS011;8990;33.226;-97.150;2023-04-03T05:32:32;0.70;;;0.60;;
17739;SDS011;8990;33.226;-97.150;2023-04-03T05:35:11;0.57;;;0.57;;
17739;SDS011;8990;33.226;-97.150;2023-04-03T05:37:42;0.63;;;0.63;;
17739;SDS011;8990;33.226;-97.150;2023-04-03T05:40:13;0.30;;;0.30;;
17739;SDS011;8990;33.226;-97.150;2023-04-03T05:42:47;0.20;;;0.20;;
17739;SDS011;8990;33.226;-97.150;2023-04-03T05:45:17;0.10;;;0.10;;
17739;SDS011;8990;33.226;-97.150;2023-04-03T05:47:46;0.60;;;0.60;;
17739;SDS011;8990;33.226;-97.150;2023-04-03T05:50:16;0.65;;;0.65;;
17739;SDS011;8990;33.226;-97.150;2023-04-03T05:52:47;0.43;;;0.40;;
17739;SDS011;8990;33.226;-97.150;2023-04-03T05:55:19;0.30;;;0.30;;
17739;SDS011;8990;33.226;-97.150;2023-04-03T05:57:50;0.73;;;0.73;;
17739;SDS011;8990;33.226;-97.150;2023-04-03T06:00:20;0.30;;;0.30;;
17739;SDS011;8990;33.226;-97.150;2023-04-03T06:02:58;0.20;;;0.20;;
17739;SDS011;8990;33.226;-97.150;2023-04-03T06:05:27;0.40;;;0.40;;
17739;SDS011;8990;33.226;-97.150;2023-04-03T06:07:56;0.38;;;0.38;;
17739;SDS011;8990;33.226;-97.150;2023-04-03T06:10:26;0.30;;;0.30;;
17739;SDS011;8990;33.226;-97.150;2023-04-03T06:12:56;0.43;;;0.43;;
17739;SDS011;8990;33.226;-97.150;2023-04-03T06:15:26;0.85;;;0.85;;
17739;SDS011;8990;33.226;-97.150;2023-04-03T06:17:55;0.68;;;0.68;;
17739;SDS011;8990;33.226;-97.150;2023-04-03T06:20:24;0.30;;;0.30;;
17739;SDS011;8990;33.226;-97.150;2023-04-03T06:22:53;0.20;;;0.20;;
17739;SDS011;8990;33.226;-97.150;2023-04-03T06:25:22;0.43;;;0.43;;
17739;SDS011;8990;33.226;-97.150;2023-04-03T06:27:52;1.10;;;0.88;;
17739;SDS011;8990;33.226;-97.150;2023-04-03T06:30:23;0.63;;;0.63;;
17739;SDS011;8990;33.226;-97.150;2023-04-03T06:32:52;2.78;;;0.88;;
17739;SDS011;8990;33.226;-97.150;2023-04-03T06:35:21;1.08;;;0.63;;
17739;SDS011;8990;33.226;-97.150;2023-04-03T06:37:51;2.40;;;1.05;;
17739;SDS011;8990;33.226;-97.150;2023-04-03T06:40:22;1.25;;;0.95;;
17739;SDS011;8990;33.226;-97.150;2023-04-03T06:42:52;1.38;;;1.27;;
17739;SDS011;8990;33.226;-97.150;2023-04-03T06:45:23;0.73;;;0.63;;
17739;SDS011;8990;33.226;-97.150;2023-04-03T06:47:52;1.35;;;1.02;;
17739;SDS011;8990;33.226;-97.150;2023-04-03T06:50:21;0.90;;;0.90;;
17739;SDS011;8990;33.226;-97.150;2023-04-03T06:52:51;0.85;;;0.85;;
17739;SDS011;8990;33.226;-97.150;2023-04-03T06:55:20;1.02;;;1.02;;
17739;SDS011;8990;33.226;-97.150;2023-04-03T06:57:49;0.60;;;0.60;;
17739;SDS011;8990;33.226;-97.150;2023-04-03T07:00:18;1.73;;;0.55;;
17739;SDS011;8990;33.226;-97.150;2023-04-03T07:02:49;0.47;;;0.47;;
17739;SDS011;8990;33.226;-97.150;2023-04-03T07:05:18;0.30;;;0.30;;
17739;SDS011;8990;33.226;-97.150;2023-04-03T07:07:47;0.40;;;0.40;;
17739;SDS011;8990;33.226;-97.150;2023-04-03T07:10:17;0.65;;;0.50;;
17739;SDS011;8990;33.226;-97.150;2023-04-03T07:12:46;2.08;;;1.33;;
17739;SDS011;8990;33.226;-97.150;2023-04-03T07:15:15;1.63;;;0.57;;
17739;SDS011;8990;33.226;-97.150;2023-04-03T07:17:45;0.57;;;0.57;;
17739;SDS011;8990;33.226;-97.150;2023-04-03T07:20:16;1.13;;;0.85;;
17739;SDS011;8990;33.226;-97.150;2023-04-03T07:22:45;1.50;;;0.93;;
17739;SDS011;8990;33.226;-97.150;2023-04-03T07:25:14;4.07;;;0.90;;
17739;SDS011;8990;33.226;-97.150;2023-04-03T07:27:44;0.47;;;0.47;;
17739;SDS011;8990;33.226;-97.150;2023-04-03T07:30:13;1.23;;;1.13;;
17739;SDS011;8990;33.226;-97.150;2023-04-03T07:32:42;0.60;;;0.60;;
17739;SDS011;8990;33.226;-97.150;2023-04-03T07:35:11;1.75;;;1.65;;
17739;SDS011;8990;33.226;-97.150;2023-04-03T07:37:42;1.55;;;1.30;;
17739;SDS011;8990;33.226;-97.150;2023-04-03T07:40:12;0.70;;;0.70;;
17739;SDS011;8990;33.226;-97.150;2023-04-03T07:42:41;0.40;;;0.40;;
17739;SDS011;8990;33.226;-97.150;2023-04-03T07:45:10;1.33;;;1.20;;
17739;SDS011;8990;33.226;-97.150;2023-04-03T07:47:39;1.63;;;1.52;;
17739;SDS011;8990;33.226;-97.150;2023-04-03T07:50:08;1.40;;;1.33;;
17739;SDS011;8990;33.226;-97.150;2023-04-03T07:52:37;0.98;;;0.98;;
17739;SDS011;8990;33.226;-97.150;2023-04-03T07:55:08;1.15;;;1.08;;
17739;SDS011;8990;33.226;-97.150;2023-04-03T07:57:37;1.02;;;0.93;;
17739;SDS011;8990;33.226;-97.150;2023-04-03T08:00:07;0.45;;;0.45;;
17739;SDS011;8990;33.226;-97.150;2023-04-03T08:02:38;0.63;;;0.63;;
17739;SDS011;8990;33.226;-97.150;2023-04-03T08:05:07;2.25;;;1.38;;
17739;SDS011;8990;33.226;-97.150;2023-04-03T08:07:36;1.20;;;1.20;;
17739;SDS011;8990;33.226;-97.150;2023-04-03T08:10:08;3.03;;;1.58;;
17739;SDS011;8990;33.226;-97.150;2023-04-03T08:12:37;1.13;;;0.95;;
17739;SDS011;8990;33.226;-97.150;2023-04-03T08:15:07;1.35;;;1.25;;
17739;SDS011;8990;33.226;-97.150;2023-04-03T08:17:36;1.23;;;1.23;;
17739;SDS011;8990;33.226;-97.150;2023-04-03T08:20:06;1.08;;;1.08;;
17739;SDS011;8990;33.226;-97.150;2023-04-03T08:22:37;1.55;;;1.05;;
17739;SDS011;8990;33.226;-97.150;2023-04-03T08:25:08;0.95;;;0.95;;
17739;SDS011;8990;33.226;-97.150;2023-04-03T08:27:37;1.73;;;1.63;;
17739;SDS011;8990;33.226;-97.150;2023-04-03T08:30:07;1.55;;;1.35;;
17739;SDS011;8990;33.226;-97.150;2023-04-03T08:32:36;1.65;;;1.55;;
17739;SDS011;8990;33.226;-97.150;2023-04-03T08:35:08;2.15;;;1.95;;
17739;SDS011;8990;33.226;-97.150;2023-04-03T08:37:37;2.35;;;2.15;;
17739;SDS011;8990;33.226;-97.150;2023-04-03T08:40:12;1.63;;;1.52;;
17739;SDS011;8990;33.226;-97.150;2023-04-03T08:42:49;2.10;;;1.95;;
17739;SDS011;8990;33.226;-97.150;2023-04-03T08:45:26;1.58;;;1.23;;
17739;SDS011;8990;33.226;-97.150;2023-04-03T08:48:05;0.68;;;0.68;;
17739;SDS011;8990;33.226;-97.150;2023-04-03T08:50:39;1.58;;;1.15;;
17739;SDS011;8990;33.226;-97.150;2023-04-03T08:53:12;2.38;;;2.22;;
17739;SDS011;8990;33.226;-97.150;2023-04-03T08:55:45;1.48;;;1.38;;
17739;SDS011;8990;33.226;-97.150;2023-04-03T08:58:16;1.10;;;1.10;;
17739;SDS011;8990;33.226;-97.150;2023-04-03T09:00:47;2.50;;;2.35;;
17739;SDS011;8990;33.226;-97.150;2023-04-03T09:03:18;3.72;;;2.63;;
17739;SDS011;8990;33.226;-97.150;2023-04-03T09:05:49;2.58;;;2.38;;
17739;SDS011;8990;33.226;-97.150;2023-04-03T09:08:23;1.85;;;1.80;;
17739;SDS011;8990;33.226;-97.150;2023-04-03T09:11:03;2.80;;;2.63;;
17739;SDS011;8990;33.226;-97.150;2023-04-03T09:13:41;2.28;;;2.08;;
17739;SDS011;8990;33.226;-97.150;2023-04-03T09:16:20;2.35;;;2.20;;
17739;SDS011;8990;33.226;-97.150;2023-04-03T09:19:02;1.65;;;1.55;;
17739;SDS011;8990;33.226;-97.150;2023-04-03T09:21:40;15.07;;;2.10;;
17739;SDS011;8990;33.226;-97.150;2023-04-03T09:24:10;2.33;;;2.13;;
17739;SDS011;8990;33.226;-97.150;2023-04-03T09:26:44;1.92;;;1.83;;
17739;SDS011;8990;33.226;-97.150;2023-04-03T09:29:19;2.08;;;1.63;;
17739;SDS011;8990;33.226;-97.150;2023-04-03T09:31:52;1.88;;;1.38;;
17739;SDS011;8990;33.226;-97.150;2023-04-03T09:34:27;2.38;;;1.77;;
17739;SDS011;8990;33.226;-97.150;2023-04-03T09:36:59;1.77;;;1.67;;
17739;SDS011;8990;33.226;-97.150;2023-04-03T09:39:32;1.70;;;1.60;;
17739;SDS011;8990;33.226;-97.150;2023-04-03T09:42:20;2.25;;;1.20;;
17739;SDS011;8990;33.226;-97.150;2023-04-03T09:44:53;3.85;;;1.60;;
17739;SDS011;8990;33.226;-97.150;2023-04-03T09:47:24;1.05;;;1.05;;
17739;SDS011;8990;33.226;-97.150;2023-04-03T09:50:08;2.72;;;1.63;;
17739;SDS011;8990;33.226;-97.150;2023-04-03T09:52:47;1.60;;;0.93;;
17739;SDS011;8990;33.226;-97.150;2023-04-03T09:55:18;2.17;;;2.00;;
17739;SDS011;8990;33.226;-97.150;2023-04-03T09:57:54;2.25;;;1.83;;
17739;SDS011;8990;33.226;-97.150;2023-04-03T10:00:26;1.10;;;1.00;;
17739;SDS011;8990;33.226;-97.150;2023-04-03T10:02:58;3.85;;;1.70;;
17739;SDS011;8990;33.226;-97.150;2023-04-03T10:05:29;3.35;;;1.48;;
17739;SDS011;8990;33.226;-97.150;2023-04-03T10:08:08;1.35;;;1.33;;
17739;SDS011;8990;33.226;-97.150;2023-04-03T10:10:45;12.63;;;1.83;;
17739;SDS011;8990;33.226;-97.150;2023-04-03T10:13:17;1.52;;;1.42;;
17739;SDS011;8990;33.226;-97.150;2023-04-03T10:15:49;1.02;;;1.02;;
17739;SDS011;8990;33.226;-97.150;2023-04-03T10:18:28;2.35;;;1.55;;
17739;SDS011;8990;33.226;-97.150;2023-04-03T10:21:02;1.65;;;1.58;;
17739;SDS011;8990;33.226;-97.150;2023-04-03T10:23:37;1.02;;;1.02;;
17739;SDS011;8990;33.226;-97.150;2023-04-03T10:26:13;1.00;;;1.00;;
17739;SDS011;8990;33.226;-97.150;2023-04-03T10:28:55;2.35;;;1.65;;
17739;SDS011;8990;33.226;-97.150;2023-04-03T10:31:32;2.00;;;1.85;;
17739;SDS011;8990;33.226;-97.150;2023-04-03T10:34:06;4.57;;;1.58;;
17739;SDS011;8990;33.226;-97.150;2023-04-03T10:36:50;1.55;;;1.45;;
17739;SDS011;8990;33.226;-97.150;2023-04-03T10:39:27;0.68;;;0.68;;
17739;SDS011;8990;33.226;-97.150;2023-04-03T10:42:04;1.60;;;1.50;;
17739;SDS011;8990;33.226;-97.150;2023-04-03T10:44:42;6.05;;;1.95;;
17739;SDS011;8990;33.226;-97.150;2023-04-03T10:47:31;1.02;;;1.02;;
17739;SDS011;8990;33.226;-97.150;2023-04-03T10:50:12;1.83;;;1.73;;
17739;SDS011;8990;33.226;-97.150;2023-04-03T10:52:55;3.03;;;1.42;;
17739;SDS011;8990;33.226;-97.150;2023-04-03T10:55:31;1.50;;;1.40;;
17739;SDS011;8990;33.226;-97.150;2023-04-03T10:58:05;2.13;;;1.52;;
17739;SDS011;8990;33.226;-97.150;2023-04-03T11:00:40;1.00;;;0.95;;
17739;SDS011;8990;33.226;-97.150;2023-04-03T11:03:13;1.17;;;1.17;;
17739;SDS011;8990;33.226;-97.150;2023-04-03T11:05:49;1.25;;;1.25;;
17739;SDS011;8990;33.226;-97.150;2023-04-03T11:08:24;1.58;;;1.48;;
17739;SDS011;8990;33.226;-97.150;2023-04-03T11:10:57;0.68;;;0.68;;
17739;SDS011;8990;33.226;-97.150;2023-04-03T11:13:31;1.48;;;1.13;;
17739;SDS011;8990;33.226;-97.150;2023-04-03T11:16:05;2.20;;;1.30;;
17739;SDS011;8990;33.226;-97.150;2023-04-03T11:18:36;0.90;;;0.90;;
17739;SDS011;8990;33.226;-97.150;2023-04-03T11:21:09;1.85;;;1.27;;
17739;SDS011;8990;33.226;-97.150;2023-04-03T11:23:42;1.55;;;1.50;;
17739;SDS011;8990;33.226;-97.150;2023-04-03T11:26:12;0.73;;;0.73;;
17739;SDS011;8990;33.226;-97.150;2023-04-03T11:28:43;1.10;;;1.02;;
17739;SDS011;8990;33.226;-97.150;2023-04-03T11:31:21;2.90;;;1.38;;
17739;SDS011;8990;33.226;-97.150;2023-04-03T11:34:02;1.42;;;1.05;;
17739;SDS011;8990;33.226;-97.150;2023-04-03T11:36:39;2.50;;;1.77;;
17739;SDS011;8990;33.226;-97.150;2023-04-03T11:39:15;1.58;;;1.48;;
17739;SDS011;8990;33.226;-97.150;2023-04-03T11:41:50;2.53;;;1.80;;
17739;SDS011;8990;33.226;-97.150;2023-04-03T11:44:28;1.17;;;1.17;;
17739;SDS011;8990;33.226;-97.150;2023-04-03T11:47:06;1.02;;;1.02;;
17739;SDS011;8990;33.226;-97.150;2023-04-03T11:49:53;1.23;;;1.23;;
17739;SDS011;8990;33.226;-97.150;2023-04-03T11:55:46;0.68;;;0.68;;
17739;SDS011;8990;33.226;-97.150;2023-04-03T11:58:25;1.08;;;1.08;;
17739;SDS011;8990;33.226;-97.150;2023-04-03T12:00:56;1.02;;;1.02;;
17739;SDS011;8990;33.226;-97.150;2023-04-03T12:12:31;1.20;;;0.90;;
17739;SDS011;8990;33.226;-97.150;2023-04-03T12:15:18;1.58;;;1.48;;
17739;SDS011;8990;33.226;-97.150;2023-04-03T12:21:24;2.05;;;1.65;;
17739;SDS011;8990;33.226;-97.150;2023-04-03T12:24:35;2.05;;;1.95;;
17739;SDS011;8990;33.226;-97.150;2023-04-03T12:27:11;3.10;;;1.85;;
17739;SDS011;8990;33.226;-97.150;2023-04-03T12:30:00;1.75;;;1.65;;
17739;SDS011;8990;33.226;-97.150;2023-04-03T12:32:48;4.78;;;1.65;;
17739;SDS011;8990;33.226;-97.150;2023-04-03T12:35:30;1.98;;;1.88;;
17739;SDS011;8990;33.226;-97.150;2023-04-03T12:41:08;1.00;;;1.00;;
17739;SDS011;8990;33.226;-97.150;2023-04-03T12:43:56;2.08;;;1.83;;
17739;SDS011;8990;33.226;-97.150;2023-04-03T12:46:36;0.70;;;0.70;;
17739;SDS011;8990;33.226;-97.150;2023-04-03T12:49:14;1.75;;;1.65;;
17739;SDS011;8990;33.226;-97.150;2023-04-03T12:51:58;1.30;;;1.30;;
17739;SDS011;8990;33.226;-97.150;2023-04-03T12:54:30;1.27;;;1.27;;
17739;SDS011;8990;33.226;-97.150;2023-04-03T12:57:13;1.05;;;1.05;;
17739;SDS011;8990;33.226;-97.150;2023-04-03T12:59:45;3.33;;;1.77;;
17739;SDS011;8990;33.226;-97.150;2023-04-03T13:02:20;1.85;;;1.75;;
17739;SDS011;8990;33.226;-97.150;2023-04-03T13:04:51;3.25;;;1.85;;
17739;SDS011;8990;33.226;-97.150;2023-04-03T13:07:22;1.27;;;1.27;;
17739;SDS011;8990;33.226;-97.150;2023-04-03T13:09:58;1.75;;;1.63;;
17739;SDS011;8990;33.226;-97.150;2023-04-03T13:12:30;1.73;;;1.25;;
17739;SDS011;8990;33.226;-97.150;2023-04-03T13:15:00;1.20;;;1.20;;
17739;SDS011;8990;33.226;-97.150;2023-04-03T13:17:31;2.22;;;1.63;;
17739;SDS011;8990;33.226;-97.150;2023-04-03T13:20:12;1.27;;;1.23;;
17739;SDS011;8990;33.226;-97.150;2023-04-03T13:22:48;1.90;;;1.80;;
17739;SDS011;8990;33.226;-97.150;2023-04-03T13:25:20;1.52;;;1.42;;
17739;SDS011;8990;33.226;-97.150;2023-04-03T13:27:52;1.35;;;1.25;;
17739;SDS011;8990;33.226;-97.150;2023-04-03T13:30:23;1.73;;;1.40;;
17739;SDS011;8990;33.226;-97.150;2023-04-03T13:32:55;2.15;;;1.95;;
17739;SDS011;8990;33.226;-97.150;2023-04-03T13:35:30;1.40;;;1.30;;
17739;SDS011;8990;33.226;-97.150;2023-04-03T13:38:05;1.63;;;1.58;;
17739;SDS011;8990;33.226;-97.150;2023-04-03T13:40:49;2.53;;;1.92;;
17739;SDS011;8990;33.226;-97.150;2023-04-03T13:43:22;1.20;;;1.20;;
17739;SDS011;8990;33.226;-97.150;2023-04-03T13:45:56;2.60;;;1.02;;
17739;SDS011;8990;33.226;-97.150;2023-04-03T13:48:35;1.05;;;1.05;;
17739;SDS011;8990;33.226;-97.150;2023-04-03T13:51:17;0.70;;;0.70;;
17739;SDS011;8990;33.226;-97.150;2023-04-03T13:53:49;2.28;;;2.08;;
17739;SDS011;8990;33.226;-97.150;2023-04-03T13:56:21;1.08;;;1.08;;
17739;SDS011;8990;33.226;-97.150;2023-04-03T13:58:57;3.17;;;1.13;;
17739;SDS011;8990;33.226;-97.150;2023-04-03T14:01:39;5.18;;;1.95;;
17739;SDS011;8990;33.226;-97.150;2023-04-03T14:04:13;1.70;;;1.30;;
17739;SDS011;8990;33.226;-97.150;2023-04-03T14:06:45;1.92;;;1.27;;
17739;SDS011;8990;33.226;-97.150;2023-04-03T14:09:16;2.13;;;1.40;;
17739;SDS011;8990;33.226;-97.150;2023-04-03T14:11:46;2.08;;;1.00;;
17739;SDS011;8990;33.226;-97.150;2023-04-03T14:14:18;1.63;;;0.88;;
17739;SDS011;8990;33.226;-97.150;2023-04-03T14:16:50;9.65;;;1.13;;
17739;SDS011;8990;33.226;-97.150;2023-04-03T14:19:22;2.47;;;1.95;;
17739;SDS011;8990;33.226;-97.150;2023-04-03T14:21:52;11.35;;;1.55;;
17739;SDS011;8990;33.226;-97.150;2023-04-03T14:24:23;1.88;;;1.73;;
17739;SDS011;8990;33.226;-97.150;2023-04-03T14:26:54;2.30;;;1.90;;
17739;SDS011;8990;33.226;-97.150;2023-04-03T14:29:25;3.63;;;2.40;;
17739;SDS011;8990;33.226;-97.150;2023-04-03T14:31:54;1.35;;;1.08;;
17739;SDS011;8990;33.226;-97.150;2023-04-03T14:34:24;1.00;;;1.00;;
17739;SDS011;8990;33.226;-97.150;2023-04-03T14:36:53;2.95;;;1.27;;
17739;SDS011;8990;33.226;-97.150;2023-04-03T14:39:22;2.50;;;1.30;;
17739;SDS011;8990;33.226;-97.150;2023-04-03T14:41:51;1.52;;;1.02;;
17739;SDS011;8990;33.226;-97.150;2023-04-03T14:44:20;0.85;;;0.85;;
17739;SDS011;8990;33.226;-97.150;2023-04-03T14:46:51;3.28;;;1.60;;
17739;SDS011;8990;33.226;-97.150;2023-04-03T14:49:21;1.08;;;1.08;;
17739;SDS011;8990;33.226;-97.150;2023-04-03T14:51:52;0.50;;;0.50;;
17739;SDS011;8990;33.226;-97.150;2023-04-03T14:54:21;1.27;;;1.23;;
17739;SDS011;8990;33.226;-97.150;2023-04-03T14:56:53;14.80;;;1.83;;
17739;SDS011;8990;33.226;-97.150;2023-04-03T14:59:24;5.57;;;1.85;;
17739;SDS011;8990;33.226;-97.150;2023-04-03T15:01:55;0.75;;;0.75;;
17739;SDS011;8990;33.226;-97.150;2023-04-03T15:04:24;0.93;;;0.80;;
17739;SDS011;8990;33.226;-97.150;2023-04-03T15:06:54;1.40;;;0.60;;
17739;SDS011;8990;33.226;-97.150;2023-04-03T15:09:23;2.10;;;0.85;;
17739;SDS011;8990;33.226;-97.150;2023-04-03T15:11:54;0.82;;;0.82;;
17739;SDS011;8990;33.226;-97.150;2023-04-03T15:14:23;1.38;;;1.38;;
17739;SDS011;8990;33.226;-97.150;2023-04-03T15:16:52;0.95;;;0.95;;
17739;SDS011;8990;33.226;-97.150;2023-04-03T15:19:24;0.50;;;0.50;;
17739;SDS011;8990;33.226;-97.150;2023-04-03T15:21:53;0.52;;;0.52;;